SWA210 KBOS-KEWR
Flight info
| Callsign | SWA210 |
|---|---|
| Flight time | N/A |
| Altitude | 16000 |
| Route | PATSS7 PATSS NELIE FLOSI4 |
| Aircraft | B38M/M-SDE1FGHILORVWXY/HB1 |
Departure
| Time | 2026-05-07 16:26 |
|---|---|
| Airport | Boston Logan International Airport (KBOS) |
Arrival
| Time | N/A |
|---|---|
| Airport | Newark Liberty International Airport (KEWR) |
| Time | Latitude | Longitude | Altitude | Speed | Heading |
|---|---|---|---|---|---|
| 2026-05-07 15:52 | 42.36513 | -71.01741 | 28 ft | 0 kts | 328° |
| 2026-05-07 16:15 | 42.36512 | -71.01740 | 25 ft | 1 kts | 327° |
| 2026-05-07 16:15 | 42.36491 | -71.01723 | 29 ft | 4 kts | 327° |
| 2026-05-07 16:16 | 42.36469 | -71.01704 | 28 ft | 4 kts | 328° |
| 2026-05-07 16:16 | 42.36467 | -71.01703 | 28 ft | 4 kts | 328° |
| 2026-05-07 16:16 | 42.36453 | -71.01691 | 26 ft | 1 kts | 328° |
| 2026-05-07 16:17 | 42.36453 | -71.01690 | 26 ft | 0 kts | 328° |
| 2026-05-07 16:19 | 42.36458 | -71.01691 | 26 ft | 0 kts | 360° |
| 2026-05-07 16:19 | 42.36459 | -71.01690 | 26 ft | 0 kts | 14° |
| 2026-05-07 16:19 | 42.36463 | -71.01676 | 30 ft | 4 kts | 80° |
| 2026-05-07 16:19 | 42.36445 | -71.01584 | 27 ft | 16 kts | 115° |
| 2026-05-07 16:20 | 42.36370 | -71.01395 | 26 ft | 29 kts | 119° |
| 2026-05-07 16:20 | 42.36252 | -71.01113 | 29 ft | 40 kts | 115° |
| 2026-05-07 16:20 | 42.36125 | -71.00734 | 28 ft | 47 kts | 109° |
| 2026-05-07 16:20 | 42.36022 | -71.00316 | 29 ft | 47 kts | 108° |
| 2026-05-07 16:21 | 42.35967 | -70.99900 | 32 ft | 45 kts | 80° |
| 2026-05-07 16:21 | 42.36040 | -70.99481 | 28 ft | 46 kts | 76° |
| 2026-05-07 16:21 | 42.36112 | -70.99052 | 26 ft | 37 kts | 76° |
| 2026-05-07 16:21 | 42.36094 | -70.98832 | 26 ft | 22 kts | 153° |
| 2026-05-07 16:22 | 42.36008 | -70.98860 | 25 ft | 1 kts | 253° |
| 2026-05-07 16:22 | 42.36007 | -70.98866 | 25 ft | 0 kts | 258° |
| 2026-05-07 16:26 | 42.36007 | -70.98868 | 23 ft | 0 kts | 258° |
| 2026-05-07 16:26 | 42.35932 | -70.99278 | 26 ft | 88 kts | 257° |
| 2026-05-07 16:26 | 42.35737 | -71.00429 | 36 ft | 159 kts | 260° |
| 2026-05-07 16:26 | 42.35498 | -71.01940 | 836 ft | 166 kts | 257° |
| 2026-05-07 16:27 | 42.35104 | -71.03465 | 1787 ft | 180 kts | 240° |
| 2026-05-07 16:27 | 42.34173 | -71.04721 | 2595 ft | 199 kts | 225° |
| 2026-05-07 16:27 | 42.33076 | -71.06016 | 3266 ft | 220 kts | 225° |
| 2026-05-07 16:27 | 42.31867 | -71.07483 | 3923 ft | 243 kts | 225° |
| 2026-05-07 16:28 | 42.30629 | -71.09000 | 5135 ft | 245 kts | 227° |
| 2026-05-07 16:28 | 42.29333 | -71.10607 | 6008 ft | 260 kts | 227° |
| 2026-05-07 16:28 | 42.28026 | -71.12274 | 7191 ft | 255 kts | 233° |
| 2026-05-07 16:28 | 42.27168 | -71.14303 | 8460 ft | 246 kts | 249° |
| 2026-05-07 16:29 | 42.26471 | -71.16402 | 9694 ft | 245 kts | 248° |
| 2026-05-07 16:29 | 42.25778 | -71.18510 | 10651 ft | 251 kts | 248° |
| 2026-05-07 16:29 | 42.25047 | -71.20760 | 11192 ft | 271 kts | 248° |
| 2026-05-07 16:29 | 42.24272 | -71.23170 | 11670 ft | 289 kts | 248° |
| 2026-05-07 16:30 | 42.23454 | -71.25724 | 12239 ft | 303 kts | 247° |
| 2026-05-07 16:30 | 42.22610 | -71.28371 | 12965 ft | 310 kts | 247° |
| 2026-05-07 16:30 | 42.21757 | -71.31045 | 13888 ft | 311 kts | 247° |
| 2026-05-07 16:30 | 42.20900 | -71.33734 | 14633 ft | 314 kts | 247° |
| 2026-05-07 16:31 | 42.20032 | -71.36454 | 15369 ft | 318 kts | 247° |